sensor_id;sensor_type;location;lat;lon;timestamp;pressure;altitude;pressure_sealevel;temperature;humidity
29879;BME280;16752;53.364;-1.488;2023-08-21T00:02:34;100889.56;;;22.88;44.36
29879;BME280;16752;53.364;-1.488;2023-08-21T00:05:18;100899.72;;;22.92;44.28
29879;BME280;16752;53.364;-1.488;2023-08-21T00:08:03;100842.09;;;22.49;44.96
29879;BME280;16752;53.364;-1.488;2023-08-21T00:10:47;100954.19;;;23.24;44.92
29879;BME280;16752;53.364;-1.488;2023-08-21T00:13:31;100944.47;;;23.14;44.60
29879;BME280;16752;53.364;-1.488;2023-08-21T00:16:16;100974.38;;;23.34;44.39
29879;BME280;16752;53.364;-1.488;2023-08-21T00:19:01;100843.63;;;22.35;45.70
29879;BME280;16752;53.364;-1.488;2023-08-21T00:21:45;100978.56;;;23.29;44.78
29879;BME280;16752;53.364;-1.488;2023-08-21T00:24:28;100885.16;;;22.70;45.01
29879;BME280;16752;53.364;-1.488;2023-08-21T00:27:12;100878.81;;;22.71;45.24
29879;BME280;16752;53.364;-1.488;2023-08-21T00:29:59;100886.00;;;22.71;45.08
29879;BME280;16752;53.364;-1.488;2023-08-21T00:32:44;100912.94;;;22.85;45.77
29879;BME280;16752;53.364;-1.488;2023-08-21T00:35:28;100915.59;;;22.94;45.00
29879;BME280;16752;53.364;-1.488;2023-08-21T00:38:12;100907.41;;;22.79;45.15
29879;BME280;16752;53.364;-1.488;2023-08-21T00:40:56;100912.53;;;22.72;45.75
29879;BME280;16752;53.364;-1.488;2023-08-21T00:43:41;100922.09;;;23.07;44.88
29879;BME280;16752;53.364;-1.488;2023-08-21T00:46:25;100924.78;;;23.07;45.26
29879;BME280;16752;53.364;-1.488;2023-08-21T00:49:09;100935.28;;;23.17;44.84
29879;BME280;16752;53.364;-1.488;2023-08-21T00:51:54;100912.56;;;22.80;45.58
29879;BME280;16752;53.364;-1.488;2023-08-21T00:54:39;100877.84;;;22.64;45.67
29879;BME280;16752;53.364;-1.488;2023-08-21T00:57:23;100960.50;;;23.14;45.32
29879;BME280;16752;53.364;-1.488;2023-08-21T01:00:08;100841.44;;;22.39;44.77
29879;BME280;16752;53.364;-1.488;2023-08-21T01:02:56;100925.13;;;22.88;44.80
29879;BME280;16752;53.364;-1.488;2023-08-21T01:05:41;100903.22;;;22.60;45.57
29879;BME280;16752;53.364;-1.488;2023-08-21T01:08:53;100970.53;;;23.12;45.21
29879;BME280;16752;53.364;-1.488;2023-08-21T01:11:50;100974.38;;;23.10;45.06
29879;BME280;16752;53.364;-1.488;2023-08-21T01:15:10;100972.03;;;22.99;45.77
29879;BME280;16752;53.364;-1.488;2023-08-21T01:17:57;100972.72;;;23.09;45.73
29879;BME280;16752;53.364;-1.488;2023-08-21T01:20:42;100944.63;;;22.97;45.90
29879;BME280;16752;53.364;-1.488;2023-08-21T01:23:36;100861.97;;;22.54;45.83
29879;BME280;16752;53.364;-1.488;2023-08-21T01:26:21;100935.63;;;23.14;45.35
29879;BME280;16752;53.364;-1.488;2023-08-21T01:29:05;100877.84;;;22.89;45.47
29879;BME280;16752;53.364;-1.488;2023-08-21T01:34:48;100983.38;;;23.58;45.45
29879;BME280;16752;53.364;-1.488;2023-08-21T01:37:34;100932.44;;;23.27;45.55
29879;BME280;16752;53.364;-1.488;2023-08-21T01:40:23;100869.53;;;22.83;45.26
29879;BME280;16752;53.364;-1.488;2023-08-21T01:43:07;100890.06;;;22.99;45.42
29879;BME280;16752;53.364;-1.488;2023-08-21T01:45:51;100958.84;;;23.30;45.75
29879;BME280;16752;53.364;-1.488;2023-08-21T01:48:35;100947.47;;;23.36;45.55
29879;BME280;16752;53.364;-1.488;2023-08-21T01:51:19;100990.56;;;23.57;45.37
29879;BME280;16752;53.364;-1.488;2023-08-21T01:54:04;100981.53;;;23.50;45.88
29879;BME280;16752;53.364;-1.488;2023-08-21T01:56:48;100940.66;;;23.01;45.61
29879;BME280;16752;53.364;-1.488;2023-08-21T01:59:32;100882.03;;;23.07;45.60
29879;BME280;16752;53.364;-1.488;2023-08-21T02:02:16;100980.56;;;23.43;45.65
29879;BME280;16752;53.364;-1.488;2023-08-21T02:05:00;100942.28;;;23.42;45.88
29879;BME280;16752;53.364;-1.488;2023-08-21T02:07:45;100908.22;;;23.28;45.60
29879;BME280;16752;53.364;-1.488;2023-08-21T02:10:29;100959.16;;;23.59;45.41
29879;BME280;16752;53.364;-1.488;2023-08-21T02:13:26;100844.28;;;21.71;47.50
29879;BME280;16752;53.364;-1.488;2023-08-21T02:16:10;100891.00;;;22.74;45.80
29879;BME280;16752;53.364;-1.488;2023-08-21T02:18:55;100947.78;;;23.49;45.04
29879;BME280;16752;53.364;-1.488;2023-08-21T02:21:39;100884.69;;;23.07;45.23
29879;BME280;16752;53.364;-1.488;2023-08-21T02:24:23;100978.88;;;23.66;45.04
29879;BME280;16752;53.364;-1.488;2023-08-21T02:27:07;100962.81;;;23.58;45.12
29879;BME280;16752;53.364;-1.488;2023-08-21T02:29:51;100888.06;;;22.85;45.28
29879;BME280;16752;53.364;-1.488;2023-08-21T02:32:35;100953.50;;;23.13;45.46
29879;BME280;16752;53.364;-1.488;2023-08-21T02:35:22;100893.97;;;22.30;46.14
29879;BME280;16752;53.364;-1.488;2023-08-21T02:38:09;100941.00;;;22.15;46.81
29879;BME280;16752;53.364;-1.488;2023-08-21T02:40:53;100887.38;;;22.91;44.67
29879;BME280;16752;53.364;-1.488;2023-08-21T02:43:37;100976.41;;;23.24;44.54
29879;BME280;16752;53.364;-1.488;2023-08-21T02:46:21;100824.94;;;22.60;43.79
29879;BME280;16752;53.364;-1.488;2023-08-21T02:49:06;100901.56;;;23.08;44.11
29879;BME280;16752;53.364;-1.488;2023-08-21T02:51:50;100862.13;;;22.69;44.14
29879;BME280;16752;53.364;-1.488;2023-08-21T02:54:35;100901.72;;;22.98;44.12
29879;BME280;16752;53.364;-1.488;2023-08-21T02:57:19;100950.44;;;23.41;43.67
29879;BME280;16752;53.364;-1.488;2023-08-21T03:00:04;100886.03;;;22.79;44.54
29879;BME280;16752;53.364;-1.488;2023-08-21T03:02:56;100843.75;;;22.34;44.17
29879;BME280;16752;53.364;-1.488;2023-08-21T03:05:40;100908.25;;;22.88;43.82
29879;BME280;16752;53.364;-1.488;2023-08-21T03:08:24;100993.91;;;23.35;44.14
29879;BME280;16752;53.364;-1.488;2023-08-21T03:11:11;100852.63;;;22.50;44.24
29879;BME280;16752;53.364;-1.488;2023-08-21T03:13:55;100922.25;;;22.98;44.26
29879;BME280;16752;53.364;-1.488;2023-08-21T03:16:39;100861.81;;;22.56;44.26
29879;BME280;16752;53.364;-1.488;2023-08-21T03:19:23;100933.97;;;22.89;44.47
29879;BME280;16752;53.364;-1.488;2023-08-21T03:22:07;100891.34;;;22.54;44.66
29879;BME280;16752;53.364;-1.488;2023-08-21T03:24:52;100937.44;;;22.81;44.35
29879;BME280;16752;53.364;-1.488;2023-08-21T03:27:36;100946.94;;;22.75;45.12
29879;BME280;16752;53.364;-1.488;2023-08-21T03:30:23;100829.53;;;22.09;44.77
29879;BME280;16752;53.364;-1.488;2023-08-21T03:33:07;100859.28;;;22.30;44.75
29879;BME280;16752;53.364;-1.488;2023-08-21T03:35:55;100947.00;;;22.83;45.03
29879;BME280;16752;53.364;-1.488;2023-08-21T03:38:39;100820.03;;;22.06;45.05
29879;BME280;16752;53.364;-1.488;2023-08-21T03:41:23;100836.25;;;22.13;45.24
29879;BME280;16752;53.364;-1.488;2023-08-21T03:44:07;100912.69;;;22.46;45.19
29879;BME280;16752;53.364;-1.488;2023-08-21T03:46:51;100932.59;;;22.68;44.81
29879;BME280;16752;53.364;-1.488;2023-08-21T03:49:36;100964.16;;;22.81;44.56
29879;BME280;16752;53.364;-1.488;2023-08-21T03:52:20;100873.06;;;22.09;45.26
29879;BME280;16752;53.364;-1.488;2023-08-21T03:55:04;100803.56;;;21.69;45.17
29879;BME280;16752;53.364;-1.488;2023-08-21T03:57:52;100841.66;;;21.95;44.92
29879;BME280;16752;53.364;-1.488;2023-08-21T04:00:36;100880.06;;;22.10;45.59
29879;BME280;16752;53.364;-1.488;2023-08-21T04:03:20;100913.84;;;22.36;45.43
29879;BME280;16752;53.364;-1.488;2023-08-21T04:06:05;100877.25;;;22.12;45.19
29879;BME280;16752;53.364;-1.488;2023-08-21T04:08:49;100875.44;;;21.18;47.25
29879;BME280;16752;53.364;-1.488;2023-08-21T04:11:34;100920.97;;;21.85;46.58
29879;BME280;16752;53.364;-1.488;2023-08-21T04:14:23;100812.59;;;21.33;46.13
29879;BME280;16752;53.364;-1.488;2023-08-21T04:17:09;100910.97;;;22.21;45.80
29879;BME280;16752;53.364;-1.488;2023-08-21T04:19:53;100964.47;;;22.62;45.47
29879;BME280;16752;53.364;-1.488;2023-08-21T04:22:37;100895.97;;;22.20;45.54
29879;BME280;16752;53.364;-1.488;2023-08-21T04:25:21;100877.19;;;21.95;45.75
29879;BME280;16752;53.364;-1.488;2023-08-21T04:28:05;100876.53;;;22.02;45.32
29879;BME280;16752;53.364;-1.488;2023-08-21T04:30:51;100856.63;;;21.88;45.19
29879;BME280;16752;53.364;-1.488;2023-08-21T04:33:35;100804.16;;;21.46;45.22
29879;BME280;16752;53.364;-1.488;2023-08-21T04:36:19;100941.00;;;22.15;45.83
29879;BME280;16752;53.364;-1.488;2023-08-21T04:39:04;100898.84;;;21.92;46.02
29879;BME280;16752;53.364;-1.488;2023-08-21T04:41:48;100929.66;;;22.13;45.83
29879;BME280;16752;53.364;-1.488;2023-08-21T04:44:32;100955.34;;;22.30;45.17
29879;BME280;16752;53.364;-1.488;2023-08-21T04:47:24;100966.03;;;22.30;45.68
29879;BME280;16752;53.364;-1.488;2023-08-21T04:50:12;100939.94;;;22.08;45.29
29879;BME280;16752;53.364;-1.488;2023-08-21T04:52:56;100884.44;;;21.69;45.35
29879;BME280;16752;53.364;-1.488;2023-08-21T04:55:40;100892.03;;;21.64;45.33
29879;BME280;16752;53.364;-1.488;2023-08-21T04:58:24;100979.13;;;22.07;45.60
29879;BME280;16752;53.364;-1.488;2023-08-21T05:01:08;100939.88;;;21.91;45.73
29879;BME280;16752;53.364;-1.488;2023-08-21T05:03:52;100986.53;;;22.13;45.86
29879;BME280;16752;53.364;-1.488;2023-08-21T05:06:38;100865.13;;;21.23;46.09
29879;BME280;16752;53.364;-1.488;2023-08-21T05:09:22;100872.28;;;21.41;46.08
29879;BME280;16752;53.364;-1.488;2023-08-21T05:12:07;100983.97;;;22.12;45.64
29879;BME280;16752;53.364;-1.488;2023-08-21T05:14:51;100891.03;;;21.57;46.02
29879;BME280;16752;53.364;-1.488;2023-08-21T05:17:35;100946.34;;;21.89;45.76
29879;BME280;16752;53.364;-1.488;2023-08-21T05:20:20;100833.41;;;21.04;46.26
29879;BME280;16752;53.364;-1.488;2023-08-21T05:23:10;100899.59;;;21.43;46.71
29879;BME280;16752;53.364;-1.488;2023-08-21T05:25:55;100985.41;;;21.98;46.86
29879;BME280;16752;53.364;-1.488;2023-08-21T05:28:39;100868.53;;;20.28;48.89
29879;BME280;16752;53.364;-1.488;2023-08-21T05:31:23;100889.84;;;21.51;46.58
29879;BME280;16752;53.364;-1.488;2023-08-21T05:34:16;100876.78;;;21.22;47.34
29879;BME280;16752;53.364;-1.488;2023-08-21T05:37:01;100899.94;;;21.74;46.75
29879;BME280;16752;53.364;-1.488;2023-08-21T05:39:45;100926.31;;;22.19;46.04
29879;BME280;16752;53.364;-1.488;2023-08-21T05:42:29;100898.19;;;21.99;45.92
29879;BME280;16752;53.364;-1.488;2023-08-21T05:45:13;100960.75;;;22.46;45.40
29879;BME280;16752;53.364;-1.488;2023-08-21T05:47:57;100904.13;;;22.18;46.01
29879;BME280;16752;53.364;-1.488;2023-08-21T05:50:42;100868.50;;;21.93;45.57
29879;BME280;16752;53.364;-1.488;2023-08-21T05:53:26;100939.22;;;22.40;45.53
29879;BME280;16752;53.364;-1.488;2023-08-21T05:56:10;100913.81;;;22.19;45.76
29879;BME280;16752;53.364;-1.488;2023-08-21T05:58:55;100907.31;;;22.22;45.45
29879;BME280;16752;53.364;-1.488;2023-08-21T06:01:39;100932.66;;;22.18;46.19
29879;BME280;16752;53.364;-1.488;2023-08-21T06:04:23;100996.25;;;22.89;45.60
29879;BME280;16752;53.364;-1.488;2023-08-21T06:07:08;101006.53;;;22.76;45.68
29879;BME280;16752;53.364;-1.488;2023-08-21T06:09:53;100950.63;;;22.66;45.28
29879;BME280;16752;53.364;-1.488;2023-08-21T06:12:47;100870.78;;;22.14;45.17
29879;BME280;16752;53.364;-1.488;2023-08-21T06:15:32;100999.41;;;22.93;45.13
29879;BME280;16752;53.364;-1.488;2023-08-21T06:18:16;100975.56;;;22.33;46.31
29879;BME280;16752;53.364;-1.488;2023-08-21T06:21:00;100964.13;;;22.65;45.50
29879;BME280;16752;53.364;-1.488;2023-08-21T06:23:44;100964.03;;;22.91;44.92
29879;BME280;16752;53.364;-1.488;2023-08-21T06:26:28;100939.31;;;22.89;44.81
29879;BME280;16752;53.364;-1.488;2023-08-21T06:29:12;100928.59;;;22.80;45.20
29879;BME280;16752;53.364;-1.488;2023-08-21T06:31:57;100896.69;;;22.63;44.72
29879;BME280;16752;53.364;-1.488;2023-08-21T06:34:41;100967.56;;;22.99;45.39
29879;BME280;16752;53.364;-1.488;2023-08-21T06:37:25;100973.38;;;23.27;44.55
29879;BME280;16752;53.364;-1.488;2023-08-21T06:40:09;100960.41;;;22.49;46.16
29879;BME280;16752;53.364;-1.488;2023-08-21T06:42:55;101014.81;;;23.07;45.62
29879;BME280;16752;53.364;-1.488;2023-08-21T06:45:39;100992.91;;;23.11;45.13
29879;BME280;16752;53.364;-1.488;2023-08-21T06:48:23;101016.31;;;23.01;45.67
29879;BME280;16752;53.364;-1.488;2023-08-21T06:51:10;100978.88;;;23.34;44.45
29879;BME280;16752;53.364;-1.488;2023-08-21T06:53:54;101019.81;;;23.34;45.37
29879;BME280;16752;53.364;-1.488;2023-08-21T06:56:38;100969.50;;;23.38;45.11
29879;BME280;16752;53.364;-1.488;2023-08-21T06:59:23;100921.31;;;22.16;47.09
29879;BME280;16752;53.364;-1.488;2023-08-21T07:02:07;100947.16;;;22.90;45.68
29879;BME280;16752;53.364;-1.488;2023-08-21T07:04:51;100910.53;;;22.74;45.17
29879;BME280;16752;53.364;-1.488;2023-08-21T07:07:41;100999.63;;;23.64;44.69
29879;BME280;16752;53.364;-1.488;2023-08-21T07:10:25;101021.97;;;23.39;45.61
29879;BME280;16752;53.364;-1.488;2023-08-21T07:13:10;101010.63;;;23.04;45.87
29879;BME280;16752;53.364;-1.488;2023-08-21T07:15:54;100982.97;;;23.93;44.15
29879;BME280;16752;53.364;-1.488;2023-08-21T07:18:38;101022.16;;;23.62;45.65
29879;BME280;16752;53.364;-1.488;2023-08-21T07:21:22;100974.22;;;23.03;45.73
29879;BME280;16752;53.364;-1.488;2023-08-21T07:24:07;100906.75;;;22.93;45.32
29879;BME280;16752;53.364;-1.488;2023-08-21T07:26:55;100957.22;;;24.23;43.24
29879;BME280;16752;53.364;-1.488;2023-08-21T07:29:39;100950.63;;;24.11;43.45
29879;BME280;16752;53.364;-1.488;2023-08-21T07:32:29;100936.28;;;23.32;44.69
29879;BME280;16752;53.364;-1.488;2023-08-21T07:35:13;100972.13;;;24.26;43.33
29879;BME280;16752;53.364;-1.488;2023-08-21T07:38:04;100937.25;;;23.47;44.23
29879;BME280;16752;53.364;-1.488;2023-08-21T07:41:02;100906.69;;;22.52;46.36
29879;BME280;16752;53.364;-1.488;2023-08-21T07:43:46;100996.03;;;23.80;44.52
29879;BME280;16752;53.364;-1.488;2023-08-21T07:46:36;100893.16;;;23.43;44.28
29879;BME280;16752;53.364;-1.488;2023-08-21T07:49:20;100979.63;;;23.83;44.80
29879;BME280;16752;53.364;-1.488;2023-08-21T07:52:04;100909.31;;;23.66;43.85
29879;BME280;16752;53.364;-1.488;2023-08-21T07:54:53;100931.97;;;23.07;45.44
29879;BME280;16752;53.364;-1.488;2023-08-21T07:57:37;100981.84;;;24.19;44.06
29879;BME280;16752;53.364;-1.488;2023-08-21T08:00:21;100985.69;;;24.86;42.79
29879;BME280;16752;53.364;-1.488;2023-08-21T08:03:05;100988.00;;;25.12;42.30
29879;BME280;16752;53.364;-1.488;2023-08-21T08:06:00;100958.78;;;24.80;42.92
29879;BME280;16752;53.364;-1.488;2023-08-21T08:08:44;100922.44;;;24.31;43.16
29879;BME280;16752;53.364;-1.488;2023-08-21T08:11:32;100954.81;;;24.45;43.24
29879;BME280;16752;53.364;-1.488;2023-08-21T08:14:27;100921.72;;;24.37;42.94
29879;BME280;16752;53.364;-1.488;2023-08-21T08:17:11;100941.75;;;24.73;42.55
29879;BME280;16752;53.364;-1.488;2023-08-21T08:19:55;100962.19;;;24.43;43.85
29879;BME280;16752;53.364;-1.488;2023-08-21T08:22:45;100987.91;;;25.43;41.62
29879;BME280;16752;53.364;-1.488;2023-08-21T08:25:29;100929.34;;;25.32;41.29
29879;BME280;16752;53.364;-1.488;2023-08-21T08:28:16;100922.59;;;24.98;42.02
29879;BME280;16752;53.364;-1.488;2023-08-21T08:31:03;100969.56;;;25.70;41.45
29879;BME280;16752;53.364;-1.488;2023-08-21T08:33:50;100995.50;;;25.54;42.02
29879;BME280;16752;53.364;-1.488;2023-08-21T08:36:34;100879.81;;;24.45;42.54
29879;BME280;16752;53.364;-1.488;2023-08-21T08:39:19;100902.91;;;24.68;42.16
29879;BME280;16752;53.364;-1.488;2023-08-21T08:42:15;100952.91;;;24.30;43.60
29879;BME280;16752;53.364;-1.488;2023-08-21T08:45:32;100864.94;;;24.42;42.08
29879;BME280;16752;53.364;-1.488;2023-08-21T08:48:19;100949.56;;;25.72;40.50
29879;BME280;16752;53.364;-1.488;2023-08-21T08:51:04;100918.91;;;25.67;41.06
29879;BME280;16752;53.364;-1.488;2023-08-21T08:53:59;100899.44;;;24.83;41.65
29879;BME280;16752;53.364;-1.488;2023-08-21T08:56:45;100938.91;;;25.79;41.25
29879;BME280;16752;53.364;-1.488;2023-08-21T08:59:33;100956.94;;;25.03;42.55
29879;BME280;16752;53.364;-1.488;2023-08-21T09:02:17;100953.06;;;25.43;41.30
29879;BME280;16752;53.364;-1.488;2023-08-21T09:05:01;100910.78;;;25.45;41.19
29879;BME280;16752;53.364;-1.488;2023-08-21T09:08:03;100913.50;;;25.08;41.73
29879;BME280;16752;53.364;-1.488;2023-08-21T09:10:49;100869.66;;;25.15;40.48
29879;BME280;16752;53.364;-1.488;2023-08-21T09:13:33;100952.59;;;26.13;39.84
29879;BME280;16752;53.364;-1.488;2023-08-21T09:16:18;100998.97;;;26.52;39.51
29879;BME280;16752;53.364;-1.488;2023-08-21T09:19:02;100986.22;;;26.60;39.30
29879;BME280;16752;53.364;-1.488;2023-08-21T09:21:49;100948.22;;;26.63;39.09
29879;BME280;16752;53.364;-1.488;2023-08-21T09:24:33;100960.88;;;26.48;39.59
29879;BME280;16752;53.364;-1.488;2023-08-21T09:27:20;100990.28;;;26.92;38.10
29879;BME280;16752;53.364;-1.488;2023-08-21T09:30:08;100942.75;;;26.35;38.36
29879;BME280;16752;53.364;-1.488;2023-08-21T09:32:58;100975.00;;;26.93;38.32
29879;BME280;16752;53.364;-1.488;2023-08-21T09:35:44;101033.25;;;26.49;39.53
29879;BME280;16752;53.364;-1.488;2023-08-21T09:38:28;101019.47;;;26.74;38.88
29879;BME280;16752;53.364;-1.488;2023-08-21T09:41:13;100966.00;;;26.28;39.36
29879;BME280;16752;53.364;-1.488;2023-08-21T09:44:01;100964.72;;;26.82;38.48
29879;BME280;16752;53.364;-1.488;2023-08-21T09:46:50;101011.81;;;26.92;38.24
29879;BME280;16752;53.364;-1.488;2023-08-21T09:49:35;100964.38;;;27.06;38.38
29879;BME280;16752;53.364;-1.488;2023-08-21T09:52:21;100998.75;;;27.60;37.33
29879;BME280;16752;53.364;-1.488;2023-08-21T09:55:06;101009.28;;;27.83;37.40
29879;BME280;16752;53.364;-1.488;2023-08-21T09:57:51;100963.31;;;27.28;37.75
29879;BME280;16752;53.364;-1.488;2023-08-21T10:00:43;100996.00;;;27.81;37.29
29879;BME280;16752;53.364;-1.488;2023-08-21T10:03:28;100945.41;;;27.42;36.47
29879;BME280;16752;53.364;-1.488;2023-08-21T10:06:18;100998.06;;;27.79;36.81
29879;BME280;16752;53.364;-1.488;2023-08-21T10:09:02;100926.31;;;26.66;37.57
29879;BME280;16752;53.364;-1.488;2023-08-21T10:11:47;100954.53;;;27.48;36.79
29879;BME280;16752;53.364;-1.488;2023-08-21T10:14:32;100973.66;;;28.96;35.41
29879;BME280;16752;53.364;-1.488;2023-08-21T10:17:26;100979.06;;;27.94;36.45
29879;BME280;16752;53.364;-1.488;2023-08-21T10:20:13;100951.88;;;29.31;34.23
29879;BME280;16752;53.364;-1.488;2023-08-21T10:23:30;100983.84;;;29.07;35.21
29879;BME280;16752;53.364;-1.488;2023-08-21T10:26:15;100965.34;;;28.91;35.57
29879;BME280;16752;53.364;-1.488;2023-08-21T10:29:02;100935.84;;;29.42;34.23
29879;BME280;16752;53.364;-1.488;2023-08-21T10:31:59;100969.50;;;29.27;33.76
29879;BME280;16752;53.364;-1.488;2023-08-21T10:34:51;100931.94;;;29.32;34.77
29879;BME280;16752;53.364;-1.488;2023-08-21T10:38:07;100911.56;;;27.61;36.59
29879;BME280;16752;53.364;-1.488;2023-08-21T10:41:07;100936.59;;;28.37;35.59
29879;BME280;16752;53.364;-1.488;2023-08-21T10:43:51;100874.91;;;26.97;37.84
29879;BME280;16752;53.364;-1.488;2023-08-21T10:46:51;100911.34;;;28.58;35.80
29879;BME280;16752;53.364;-1.488;2023-08-21T10:49:37;100935.91;;;29.09;35.26
29879;BME280;16752;53.364;-1.488;2023-08-21T10:52:29;100951.56;;;28.53;35.10
29879;BME280;16752;53.364;-1.488;2023-08-21T10:55:15;100946.69;;;28.89;34.23
29879;BME280;16752;53.364;-1.488;2023-08-21T10:57:59;100935.25;;;28.94;34.78
29879;BME280;16752;53.364;-1.488;2023-08-21T11:00:44;100919.06;;;29.20;34.47
29879;BME280;16752;53.364;-1.488;2023-08-21T11:03:28;100881.25;;;29.27;34.49
29879;BME280;16752;53.364;-1.488;2023-08-21T11:06:14;100940.06;;;30.03;33.06
29879;BME280;16752;53.364;-1.488;2023-08-21T11:09:06;100895.03;;;29.84;33.91
29879;BME280;16752;53.364;-1.488;2023-08-21T11:11:57;100833.56;;;28.75;33.83
29879;BME280;16752;53.364;-1.488;2023-08-21T11:14:45;100955.75;;;29.74;33.42
29879;BME280;16752;53.364;-1.488;2023-08-21T11:17:30;100942.91;;;29.37;34.05
29879;BME280;16752;53.364;-1.488;2023-08-21T11:20:18;100900.16;;;29.20;33.75
29879;BME280;16752;53.364;-1.488;2023-08-21T11:23:07;100913.91;;;28.86;34.32
29879;BME280;16752;53.364;-1.488;2023-08-21T11:26:18;100939.84;;;28.87;35.18
29879;BME280;16752;53.364;-1.488;2023-08-21T11:29:03;100879.00;;;28.78;33.71
29879;BME280;16752;53.364;-1.488;2023-08-21T11:31:48;100887.25;;;29.49;32.57
29879;BME280;16752;53.364;-1.488;2023-08-21T11:34:32;100876.53;;;30.57;31.54
29879;BME280;16752;53.364;-1.488;2023-08-21T11:37:17;100867.94;;;31.16;31.61
29879;BME280;16752;53.364;-1.488;2023-08-21T11:40:07;100812.59;;;30.19;32.00
29879;BME280;16752;53.364;-1.488;2023-08-21T11:43:09;100929.81;;;30.63;32.14
29879;BME280;16752;53.364;-1.488;2023-08-21T11:45:55;100850.16;;;29.83;31.84
29879;BME280;16752;53.364;-1.488;2023-08-21T11:48:44;100867.81;;;29.85;33.22
29879;BME280;16752;53.364;-1.488;2023-08-21T11:51:38;100888.53;;;30.04;32.47
29879;BME280;16752;53.364;-1.488;2023-08-21T11:54:35;100883.97;;;29.98;32.47
29879;BME280;16752;53.364;-1.488;2023-08-21T11:57:20;100906.81;;;29.18;34.49
29879;BME280;16752;53.364;-1.488;2023-08-21T12:00:08;100891.78;;;29.68;33.47
29879;BME280;16752;53.364;-1.488;2023-08-21T12:02:59;100920.25;;;30.22;32.46
29879;BME280;16752;53.364;-1.488;2023-08-21T12:05:44;100887.31;;;29.94;32.47
29879;BME280;16752;53.364;-1.488;2023-08-21T12:08:28;100855.88;;;31.19;31.57
29879;BME280;16752;53.364;-1.488;2023-08-21T12:11:15;100881.41;;;30.17;32.49
29879;BME280;16752;53.364;-1.488;2023-08-21T12:13:59;100917.38;;;30.17;32.97
29879;BME280;16752;53.364;-1.488;2023-08-21T12:16:44;100859.78;;;29.65;33.26
29879;BME280;16752;53.364;-1.488;2023-08-21T12:19:28;100923.88;;;29.90;33.51
29879;BME280;16752;53.364;-1.488;2023-08-21T12:22:13;100858.63;;;30.37;32.38
29879;BME280;16752;53.364;-1.488;2023-08-21T12:25:00;100907.78;;;30.21;33.52
29879;BME280;16752;53.364;-1.488;2023-08-21T12:27:44;100901.38;;;29.38;34.25
29879;BME280;16752;53.364;-1.488;2023-08-21T12:30:34;100825.53;;;30.42;31.47
29879;BME280;16752;53.364;-1.488;2023-08-21T12:33:18;100835.38;;;30.30;32.60
29879;BME280;16752;53.364;-1.488;2023-08-21T12:36:02;100911.53;;;30.52;32.26
29879;BME280;16752;53.364;-1.488;2023-08-21T12:38:47;100909.41;;;30.29;33.42
29879;BME280;16752;53.364;-1.488;2023-08-21T12:41:34;100862.19;;;30.31;32.61
29879;BME280;16752;53.364;-1.488;2023-08-21T12:44:19;100856.88;;;30.99;32.65
29879;BME280;16752;53.364;-1.488;2023-08-21T12:47:18;100882.66;;;31.27;31.74
29879;BME280;16752;53.364;-1.488;2023-08-21T12:50:02;100833.56;;;30.98;33.07
29879;BME280;16752;53.364;-1.488;2023-08-21T12:52:50;100758.91;;;30.23;32.33
29879;BME280;16752;53.364;-1.488;2023-08-21T12:55:37;100876.56;;;31.31;32.16
29879;BME280;16752;53.364;-1.488;2023-08-21T12:58:21;100799.09;;;30.44;32.91
29879;BME280;16752;53.364;-1.488;2023-08-21T13:01:05;100837.72;;;30.76;32.57
29879;BME280;16752;53.364;-1.488;2023-08-21T13:03:50;100835.00;;;31.26;31.62
29879;BME280;16752;53.364;-1.488;2023-08-21T13:06:34;100742.44;;;30.74;31.37
29879;BME280;16752;53.364;-1.488;2023-08-21T13:09:18;100814.94;;;30.34;32.91
29879;BME280;16752;53.364;-1.488;2023-08-21T13:12:02;100850.53;;;29.93;32.85
29879;BME280;16752;53.364;-1.488;2023-08-21T13:14:46;100792.69;;;30.07;32.51
29879;BME280;16752;53.364;-1.488;2023-08-21T13:17:35;100787.00;;;30.47;32.16
29879;BME280;16752;53.364;-1.488;2023-08-21T13:20:19;100782.34;;;30.54;31.23
29879;BME280;16752;53.364;-1.488;2023-08-21T13:23:11;100821.09;;;31.16;30.84
29879;BME280;16752;53.364;-1.488;2023-08-21T13:25:57;100837.81;;;31.68;31.51
29879;BME280;16752;53.364;-1.488;2023-08-21T13:28:45;100834.63;;;31.16;31.41
29879;BME280;16752;53.364;-1.488;2023-08-21T13:31:29;100821.47;;;30.51;31.73
29879;BME280;16752;53.364;-1.488;2023-08-21T13:34:16;100817.75;;;29.83;33.01
29879;BME280;16752;53.364;-1.488;2023-08-21T13:37:01;100790.56;;;29.77;33.71
29879;BME280;16752;53.364;-1.488;2023-08-21T13:39:46;100838.53;;;30.52;32.65
29879;BME280;16752;53.364;-1.488;2023-08-21T13:42:37;100787.19;;;31.13;32.63
29879;BME280;16752;53.364;-1.488;2023-08-21T13:45:24;100802.81;;;30.93;32.69
29879;BME280;16752;53.364;-1.488;2023-08-21T13:48:12;100756.97;;;30.55;31.98
29879;BME280;16752;53.364;-1.488;2023-08-21T13:50:56;100712.59;;;30.19;32.21
29879;BME280;16752;53.364;-1.488;2023-08-21T13:53:43;100776.00;;;31.46;31.04
29879;BME280;16752;53.364;-1.488;2023-08-21T13:56:30;100779.84;;;30.59;31.88
29879;BME280;16752;53.364;-1.488;2023-08-21T13:59:14;100802.78;;;31.54;31.04
29879;BME280;16752;53.364;-1.488;2023-08-21T14:01:58;100837.66;;;31.44;31.11
29879;BME280;16752;53.364;-1.488;2023-08-21T14:04:42;100815.75;;;30.09;32.27
29879;BME280;16752;53.364;-1.488;2023-08-21T14:07:27;100719.47;;;29.52;31.29
29879;BME280;16752;53.364;-1.488;2023-08-21T14:10:11;100792.06;;;29.67;32.58
29879;BME280;16752;53.364;-1.488;2023-08-21T14:12:57;100790.16;;;29.23;32.86
29879;BME280;16752;53.364;-1.488;2023-08-21T14:15:41;100839.31;;;29.96;32.51
29879;BME280;16752;53.364;-1.488;2023-08-21T14:18:26;100722.03;;;28.56;33.83
29879;BME280;16752;53.364;-1.488;2023-08-21T14:21:11;100803.53;;;31.07;31.51
29879;BME280;16752;53.364;-1.488;2023-08-21T14:23:58;100797.50;;;30.86;32.10